createdAt,value
2022-12-19T00:02:54.373Z,-2.48
2022-12-19T00:06:59.153Z,-2.49
2022-12-19T00:11:02.412Z,-2.29
2022-12-19T00:15:04.136Z,-2.25
2022-12-19T00:19:05.664Z,-2.17
2022-12-19T00:23:07.647Z,-1.94
2022-12-19T00:27:09.087Z,-1.97
2022-12-19T00:31:15.625Z,-1.81
2022-12-19T00:35:17.103Z,-1.80
2022-12-19T00:39:18.680Z,-1.81
2022-12-19T00:43:20.635Z,-1.53
2022-12-19T00:47:22.220Z,-1.38
2022-12-19T00:51:26.607Z,-1.61
2022-12-19T00:55:28.057Z,-1.70
2022-12-19T00:59:29.488Z,-1.43
2022-12-19T01:03:31.208Z,-1.54
2022-12-19T01:07:32.734Z,-1.55
2022-12-19T01:11:54.241Z,-1.70
2022-12-19T01:15:56.106Z,-1.75
2022-12-19T01:19:57.726Z,-1.79
2022-12-19T01:23:59.136Z,-1.80
2022-12-19T01:28:00.954Z,-1.62
2022-12-19T01:32:03.568Z,-1.78
2022-12-19T01:36:10.193Z,-1.86
2022-12-19T01:40:14.772Z,-1.79
2022-12-19T01:44:16.187Z,-1.65
2022-12-19T01:48:22.662Z,-1.81
2022-12-19T01:52:24.854Z,-1.71
2022-12-19T01:56:37.043Z,-1.45
2022-12-19T02:00:40.944Z,-1.73
2022-12-19T02:04:46.107Z,-1.65
2022-12-19T02:08:48.791Z,-1.66
2022-12-19T02:12:50.362Z,-1.81
2022-12-19T02:16:58.113Z,-1.18
2022-12-19T02:21:17.696Z,-1.42
2022-12-19T02:25:41.205Z,-1.77
2022-12-19T02:30:05.452Z,-1.77
2022-12-19T02:34:14.787Z,-1.74
2022-12-19T02:38:39.880Z,-1.60
2022-12-19T02:42:48.732Z,-1.39
2022-12-19T02:46:52.972Z,-1.65
2022-12-19T02:50:57.759Z,-1.45
2022-12-19T02:55:13.030Z,-1.39
2022-12-19T02:59:29.434Z,-1.29
2022-12-19T03:03:38.200Z,-1.44
2022-12-19T03:08:06.146Z,-1.16
2022-12-19T03:12:17.711Z,-1.10
2022-12-19T03:16:19.514Z,-1.06
2022-12-19T03:20:32.529Z,-1.20
2022-12-19T03:24:34.177Z,-1.00
2022-12-19T03:29:01.230Z,-1.26
2022-12-19T03:33:03.573Z,-0.95
2022-12-19T03:37:10.004Z,-1.10
2022-12-19T03:41:14.187Z,-1.15
2022-12-19T03:45:22.971Z,-1.13
2022-12-19T03:49:26.699Z,-1.04
2022-12-19T03:53:51.622Z,-1.05
2022-12-19T03:58:07.474Z,-1.03
2022-12-19T04:02:11.838Z,-1.16
2022-12-19T04:06:14.364Z,-1.14
2022-12-19T04:10:19.151Z,-1.09
2022-12-19T04:14:28.259Z,-1.07
2022-12-19T04:18:31.364Z,-0.85
2022-12-19T04:22:49.162Z,-0.79
2022-12-19T04:26:54.467Z,-0.98
2022-12-19T04:30:56.295Z,-1.19
2022-12-19T04:35:00.659Z,-0.90
2022-12-19T04:39:02.104Z,-0.94
2022-12-19T04:43:03.626Z,-1.25
2022-12-19T04:47:05.094Z,-1.15
2022-12-19T04:51:06.925Z,-0.92
2022-12-19T04:55:08.863Z,-0.99
2022-12-19T04:59:10.694Z,-0.82
2022-12-19T05:03:12.160Z,-1.07
2022-12-19T05:07:13.896Z,-1.13
2022-12-19T05:11:19.752Z,-0.74
2022-12-19T05:15:21.754Z,-0.92
2022-12-19T05:19:23.300Z,-0.89
2022-12-19T05:23:25.018Z,-0.72
2022-12-19T05:27:26.478Z,-0.78
2022-12-19T05:31:27.992Z,-0.79
2022-12-19T05:35:29.491Z,-0.58
2022-12-19T05:39:30.923Z,-0.56
2022-12-19T05:43:32.308Z,-0.63
2022-12-19T05:47:33.888Z,-0.52
2022-12-19T05:51:35.426Z,-0.58
2022-12-19T05:55:36.934Z,-0.27
2022-12-19T05:59:38.354Z,-0.35
2022-12-19T06:03:39.923Z,-0.37
2022-12-19T06:07:41.397Z,-0.34
2022-12-19T06:11:42.892Z,-0.49
2022-12-19T06:15:44.364Z,-0.39
2022-12-19T06:19:45.883Z,-0.29
2022-12-19T06:23:48.015Z,-0.28
2022-12-19T06:27:49.412Z,-0.16
2022-12-19T06:31:50.858Z,-0.34
2022-12-19T06:36:06.323Z,-0.30
2022-12-19T06:40:28.595Z,-0.15
2022-12-19T06:44:31.917Z,-0.10
2022-12-19T06:48:33.901Z,0.07
2022-12-19T06:52:35.364Z,0.25
2022-12-19T06:56:37.867Z,-0.03
2022-12-19T07:00:39.542Z,-0.18
2022-12-19T07:04:45.432Z,-0.22
2022-12-19T07:08:47.325Z,-0.03
2022-12-19T07:12:48.783Z,0.03
2022-12-19T07:16:52.496Z,0.05
2022-12-19T07:20:54.054Z,0.00
2022-12-19T07:24:56.525Z,0.02
2022-12-19T07:28:58.886Z,0.27
2022-12-19T07:33:00.315Z,-0.12
2022-12-19T07:37:01.780Z,0.00
2022-12-19T07:41:03.258Z,0.27
2022-12-19T07:45:05.247Z,-0.13
2022-12-19T07:49:06.907Z,0.23
2022-12-19T07:53:08.466Z,0.03
2022-12-19T07:57:09.940Z,-0.16
2022-12-19T08:01:12.474Z,0.21
2022-12-19T08:05:14.204Z,0.21
2022-12-19T08:09:15.941Z,0.30
2022-12-19T08:13:17.365Z,0.32
2022-12-19T08:17:20.772Z,0.26
2022-12-19T08:21:23.162Z,0.33
2022-12-19T08:25:26.448Z,0.43
2022-12-19T08:29:27.861Z,0.50
2022-12-19T08:33:29.300Z,0.60
2022-12-19T08:37:30.723Z,0.39
2022-12-19T08:41:32.243Z,0.57
2022-12-19T08:45:33.677Z,0.64
2022-12-19T08:49:35.239Z,0.58
2022-12-19T08:53:39.480Z,0.98
2022-12-19T08:57:41.121Z,0.87
2022-12-19T09:01:42.663Z,0.72
2022-12-19T09:06:04.062Z,0.93
2022-12-19T09:10:06.197Z,0.80
2022-12-19T09:14:07.750Z,0.91
2022-12-19T09:18:09.189Z,0.89
2022-12-19T09:22:10.617Z,1.14
2022-12-19T09:26:13.407Z,1.19
2022-12-19T09:30:15.781Z,1.11
2022-12-19T09:34:17.248Z,1.15
2022-12-19T09:38:19.885Z,1.30
2022-12-19T09:42:41.288Z,1.34
2022-12-19T09:47:24.625Z,1.38
2022-12-19T09:51:55.671Z,1.76
2022-12-19T09:55:58.219Z,1.67
2022-12-19T10:00:11.661Z,1.64
2022-12-19T10:04:18.282Z,1.65
2022-12-19T10:08:31.648Z,1.80
2022-12-19T10:13:15.291Z,2.08
2022-12-19T10:17:47.496Z,1.90
2022-12-19T10:22:18.593Z,1.95
2022-12-19T10:26:30.074Z,2.18
2022-12-19T10:31:07.267Z,2.24
2022-12-19T10:35:17.669Z,2.49
2022-12-19T10:39:29.494Z,2.69
2022-12-19T10:43:54.971Z,2.31
2022-12-19T10:47:57.781Z,2.43
2022-12-19T10:52:02.394Z,2.32
2022-12-19T10:56:20.404Z,2.62
2022-12-19T11:00:23.571Z,2.47
2022-12-19T11:04:30.322Z,2.74
2022-12-19T11:08:35.564Z,2.56
2022-12-19T11:17:40.952Z,2.50
2022-12-19T11:20:44.998Z,2.83
2022-12-19T11:29:37.515Z,2.96
2022-12-19T11:30:43.748Z,2.45
2022-12-19T11:34:50.312Z,2.72
2022-12-19T11:38:54.101Z,2.75
2022-12-19T11:43:43.855Z,2.71
2022-12-19T11:48:17.295Z,2.76
2022-12-19T11:53:05.699Z,3.02
2022-12-19T11:57:12.955Z,2.78
2022-12-19T12:01:39.559Z,2.67
2022-12-19T12:05:45.854Z,3.05
2022-12-19T12:15:19.003Z,2.78
2022-12-19T12:25:24.919Z,2.82
2022-12-19T12:31:07.036Z,2.84
2022-12-19T12:31:48.338Z,3.16
2022-12-19T12:31:53.741Z,3.17
2022-12-19T12:35:40.782Z,3.19
2022-12-19T12:38:44.264Z,3.13
2022-12-19T12:43:04.630Z,3.18
2022-12-19T12:47:20.536Z,3.15
2022-12-19T12:51:24.675Z,3.13
2022-12-19T12:55:31.176Z,2.98
2022-12-19T12:59:32.798Z,3.19
2022-12-19T13:03:34.979Z,3.62
2022-12-19T13:07:51.240Z,3.20
2022-12-19T13:12:36.538Z,2.93
2022-12-19T13:16:43.988Z,3.10
2022-12-19T13:20:48.189Z,3.41
2022-12-19T13:24:58.069Z,3.23
2022-12-19T13:29:26.514Z,3.22
2022-12-19T13:33:52.640Z,3.18
2022-12-19T13:39:59.748Z,3.62
2022-12-19T13:42:46.021Z,3.40
2022-12-19T13:46:47.864Z,3.61
2022-12-19T13:50:49.852Z,3.68
2022-12-19T13:54:57.066Z,3.76
2022-12-19T13:59:04.643Z,3.79
2022-12-19T14:03:15.488Z,3.50
2022-12-19T14:07:30.444Z,3.54
2022-12-19T14:12:19.106Z,3.75
2022-12-19T14:16:04.979Z,3.88
2022-12-19T14:22:11.741Z,3.74
2022-12-19T14:25:45.096Z,3.72
2022-12-19T14:29:45.543Z,3.79
2022-12-19T14:34:18.437Z,3.60
2022-12-19T14:39:25.206Z,3.89
2022-12-19T14:43:58.791Z,3.66
2022-12-19T14:52:25.481Z,3.59
2022-12-19T14:54:28.084Z,3.39
2022-12-19T14:56:53.847Z,3.83
2022-12-19T15:01:09.660Z,3.63
2022-12-19T15:05:17.102Z,3.64
2022-12-19T15:11:06.383Z,3.82
2022-12-19T15:14:53.358Z,3.71
2022-12-19T15:18:36.330Z,3.70
2022-12-19T15:22:37.901Z,3.86
2022-12-19T15:26:48.051Z,3.60
2022-12-19T15:30:59.820Z,3.82
2022-12-19T15:35:01.703Z,4.12
2022-12-19T15:39:04.652Z,3.97
2022-12-19T15:43:23.747Z,4.13
2022-12-19T15:47:37.065Z,4.23
2022-12-19T15:51:39.687Z,4.24
2022-12-19T15:55:43.942Z,4.27
2022-12-19T15:59:47.391Z,4.34
2022-12-19T16:03:50.921Z,4.28
2022-12-19T16:07:54.661Z,4.45
2022-12-19T16:11:58.250Z,4.43
2022-12-19T16:16:01.430Z,4.36
2022-12-19T16:20:05.142Z,4.23
2022-12-19T16:24:08.441Z,4.56
2022-12-19T16:28:32.182Z,4.54
2022-12-19T16:32:35.095Z,4.51
2022-12-19T16:36:36.690Z,4.42
2022-12-19T16:40:39.571Z,4.50
2022-12-19T16:44:41.707Z,4.64
2022-12-19T16:48:54.981Z,4.59
2022-12-19T16:53:04.185Z,4.61
2022-12-19T16:57:22.488Z,4.58
2022-12-19T17:01:35.367Z,4.55
2022-12-19T17:05:44.976Z,4.57
2022-12-19T17:09:54.086Z,4.51
2022-12-19T17:14:03.137Z,4.46
2022-12-19T17:18:12.353Z,4.59
2022-12-19T17:22:21.777Z,4.28
2022-12-19T17:26:25.594Z,4.88
2022-12-19T17:30:27.405Z,4.58
2022-12-19T17:34:31.869Z,4.64
2022-12-19T17:38:33.998Z,4.80
2022-12-19T17:42:37.580Z,4.62
2022-12-19T17:46:39.639Z,4.87
2022-12-19T17:50:41.683Z,4.61
2022-12-19T17:54:44.173Z,4.85
2022-12-19T17:58:46.098Z,4.91
2022-12-19T18:02:49.212Z,5.14
2022-12-19T18:06:51.570Z,4.96
2022-12-19T18:10:56.404Z,5.12
2022-12-19T18:14:57.986Z,5.05
2022-12-19T18:18:59.508Z,5.06
2022-12-19T18:23:01.636Z,5.24
2022-12-19T18:27:03.179Z,4.96
2022-12-19T18:31:13.952Z,5.00
2022-12-19T18:35:28.015Z,5.31
2022-12-19T18:39:30.654Z,5.07
2022-12-19T18:43:32.640Z,5.17
2022-12-19T18:47:34.103Z,5.31
2022-12-19T18:51:35.745Z,5.31
2022-12-19T18:55:39.879Z,5.28
2022-12-19T18:59:41.452Z,5.27
2022-12-19T19:03:51.056Z,5.26
2022-12-19T19:07:52.739Z,5.17
2022-12-19T19:11:54.397Z,5.20
2022-12-19T19:15:59.581Z,5.44
2022-12-19T19:20:02.551Z,5.43
2022-12-19T19:24:08.021Z,5.48
2022-12-19T19:28:09.608Z,5.68
2022-12-19T19:32:11.091Z,5.84
2022-12-19T19:36:17.591Z,5.56
2022-12-19T19:40:19.540Z,5.66
2022-12-19T19:44:21.040Z,5.52
2022-12-19T19:48:22.476Z,5.80
2022-12-19T19:52:23.970Z,5.71
2022-12-19T19:56:25.562Z,5.62
2022-12-19T20:00:27.173Z,5.73
2022-12-19T20:04:29.146Z,5.89
2022-12-19T20:08:38.642Z,5.97
2022-12-19T20:12:40.820Z,6.23
2022-12-19T20:16:43.469Z,6.20
2022-12-19T20:20:47.856Z,6.18
2022-12-19T20:24:49.547Z,6.33
2022-12-19T20:28:51.615Z,6.31
2022-12-19T20:32:53.024Z,6.34
2022-12-19T20:36:54.600Z,6.29
2022-12-19T20:40:56.069Z,6.38
2022-12-19T20:44:57.519Z,6.29
2022-12-19T20:48:59.151Z,6.44
2022-12-19T20:53:00.690Z,6.35
2022-12-19T20:57:02.411Z,6.45
2022-12-19T21:01:07.456Z,6.38
2022-12-19T21:05:09.532Z,6.65
2022-12-19T21:09:11.442Z,6.59
2022-12-19T21:13:12.910Z,6.61
2022-12-19T21:17:14.607Z,6.65
2022-12-19T21:21:23.482Z,6.71
2022-12-19T21:25:25.297Z,6.91
2022-12-19T21:29:26.719Z,6.64
2022-12-19T21:33:28.615Z,6.50
2022-12-19T21:37:30.120Z,6.51
2022-12-19T21:41:32.550Z,6.45
2022-12-19T21:45:33.998Z,6.47
2022-12-19T21:49:35.421Z,6.72
2022-12-19T21:53:38.184Z,6.62
2022-12-19T21:57:40.509Z,6.83
2022-12-19T22:01:42.716Z,6.79
2022-12-19T22:05:44.275Z,6.79
2022-12-19T22:09:45.741Z,7.08
2022-12-19T22:13:48.794Z,7.15
2022-12-19T22:17:50.247Z,7.17
2022-12-19T22:21:51.701Z,7.15
2022-12-19T22:26:01.373Z,7.12
2022-12-19T22:30:08.752Z,7.13
2022-12-19T22:34:15.233Z,7.16
2022-12-19T22:38:16.986Z,7.03
2022-12-19T22:42:18.642Z,7.19
2022-12-19T22:46:22.685Z,7.12
2022-12-19T22:50:24.207Z,7.11
2022-12-19T22:54:25.673Z,7.03
2022-12-19T22:58:28.722Z,7.19
2022-12-19T23:02:30.495Z,7.08
2022-12-19T23:06:34.400Z,7.06
2022-12-19T23:10:35.831Z,7.05
2022-12-19T23:14:37.274Z,7.00
2022-12-19T23:18:39.882Z,6.95
2022-12-19T23:22:41.316Z,7.08
2022-12-19T23:26:43.077Z,6.81
2022-12-19T23:30:44.547Z,6.88
2022-12-19T23:34:45.986Z,7.03
2022-12-19T23:38:47.463Z,7.02
2022-12-19T23:42:48.991Z,7.01
2022-12-19T23:46:51.118Z,6.98
2022-12-19T23:51:04.585Z,6.58
2022-12-19T23:55:06.655Z,6.92
2022-12-19T23:59:08.177Z,7.38
